createdAt,value
2023-08-03T00:00:39.239Z,59.77
2023-08-03T00:03:08.662Z,59.80
2023-08-03T00:05:35.115Z,59.70
2023-08-03T00:08:01.514Z,59.78
2023-08-03T00:10:27.927Z,59.59
2023-08-03T00:12:54.314Z,60.08
2023-08-03T00:15:20.725Z,59.62
2023-08-03T00:17:47.131Z,60.03
2023-08-03T00:20:13.605Z,60.03
2023-08-03T00:22:40.020Z,59.88
2023-08-03T00:25:06.492Z,59.88
2023-08-03T00:27:32.907Z,59.78
2023-08-03T00:29:59.318Z,59.82
2023-08-03T00:32:25.794Z,59.71
2023-08-03T00:34:52.227Z,59.80
2023-08-03T00:37:18.632Z,59.92
2023-08-03T00:39:45.013Z,59.78
2023-08-03T00:42:11.443Z,59.97
2023-08-03T00:44:38.546Z,59.86
2023-08-03T00:47:05.162Z,60.01
2023-08-03T00:49:31.573Z,59.68
2023-08-03T00:51:58.186Z,59.87
2023-08-03T00:54:24.602Z,59.67
2023-08-03T00:56:50.995Z,59.95
2023-08-03T00:59:17.454Z,60.00
2023-08-03T01:01:43.936Z,60.06
2023-08-03T01:04:10.709Z,59.78
2023-08-03T01:06:37.274Z,59.94
2023-08-03T01:09:05.036Z,60.02
2023-08-03T01:11:31.473Z,59.75
2023-08-03T01:13:57.868Z,60.02
2023-08-03T01:16:24.755Z,60.02
2023-08-03T01:18:51.198Z,59.75
2023-08-03T01:21:18.417Z,59.86
2023-08-03T01:23:44.822Z,59.72
2023-08-03T01:26:11.258Z,59.66
2023-08-03T01:28:37.653Z,59.88
2023-08-03T01:31:04.288Z,59.91
2023-08-03T01:33:30.762Z,59.83
2023-08-03T01:35:57.194Z,59.68
2023-08-03T01:38:23.603Z,59.45
2023-08-03T01:40:50.023Z,59.74
2023-08-03T01:43:16.424Z,59.75
2023-08-03T01:45:42.844Z,59.51
2023-08-03T01:48:09.250Z,59.59
2023-08-03T01:50:35.732Z,59.82
2023-08-03T01:53:02.147Z,59.74
2023-08-03T01:55:28.563Z,59.60
2023-08-03T01:57:54.966Z,59.95
2023-08-03T02:00:21.427Z,59.87
2023-08-03T02:02:48.207Z,59.72
2023-08-03T02:05:17.969Z,59.52
2023-08-03T02:07:45.322Z,59.86
2023-08-03T02:10:12.068Z,59.81
2023-08-03T02:12:39.400Z,59.63
2023-08-03T02:15:07.518Z,59.68
2023-08-03T02:17:34.039Z,59.96
2023-08-03T02:20:00.482Z,59.60
2023-08-03T02:22:26.922Z,60.04
2023-08-03T02:24:53.325Z,59.69
2023-08-03T02:27:19.742Z,59.72
2023-08-03T02:29:46.153Z,59.76
2023-08-03T02:32:13.022Z,59.75
2023-08-03T02:34:39.989Z,59.77
2023-08-03T02:37:06.597Z,59.68
2023-08-03T02:39:33.239Z,59.77
2023-08-03T02:42:00.785Z,59.77
2023-08-03T02:44:35.242Z,59.67
2023-08-03T02:47:01.763Z,59.61
2023-08-03T02:49:28.190Z,59.71
2023-08-03T02:51:54.899Z,59.74
2023-08-03T02:54:30.840Z,59.64
2023-08-03T02:56:57.705Z,59.84
2023-08-03T02:59:24.243Z,59.61
2023-08-03T03:01:50.751Z,59.63
2023-08-03T03:04:20.612Z,59.74
2023-08-03T03:06:48.502Z,59.85
2023-08-03T03:09:14.931Z,59.82
2023-08-03T03:11:45.682Z,59.74
2023-08-03T03:14:13.297Z,59.94
2023-08-03T03:16:40.134Z,59.72
2023-08-03T03:19:06.540Z,59.93
2023-08-03T03:21:32.945Z,59.53
2023-08-03T03:23:59.381Z,59.90
2023-08-03T03:26:25.777Z,59.98
2023-08-03T03:28:52.181Z,59.49
2023-08-03T03:31:24.642Z,59.72
2023-08-03T03:33:51.438Z,59.77
2023-08-03T03:36:18.293Z,59.64
2023-08-03T03:38:44.750Z,59.58
2023-08-03T03:41:11.173Z,59.63
2023-08-03T03:43:41.609Z,59.59
2023-08-03T03:46:08.955Z,59.59
2023-08-03T03:48:36.739Z,59.84
2023-08-03T03:51:04.511Z,59.51
2023-08-03T03:53:31.341Z,59.86
2023-08-03T03:56:04.185Z,59.96
2023-08-03T03:58:30.727Z,59.61
2023-08-03T04:00:57.200Z,59.73
2023-08-03T04:03:25.254Z,59.49
2023-08-03T04:05:52.403Z,59.95
2023-08-03T04:08:18.806Z,59.62
2023-08-03T04:10:45.608Z,59.68
2023-08-03T04:13:12.620Z,59.82
2023-08-03T04:15:39.064Z,59.56
2023-08-03T04:18:05.557Z,59.60
2023-08-03T04:20:34.254Z,59.41
2023-08-03T04:23:01.136Z,59.89
2023-08-03T04:25:28.825Z,59.51
2023-08-03T04:28:01.609Z,59.54
2023-08-03T04:30:32.651Z,59.66
2023-08-03T04:32:59.362Z,59.57
2023-08-03T04:35:28.074Z,59.90
2023-08-03T04:38:03.421Z,59.51
2023-08-03T04:40:31.798Z,59.64
2023-08-03T04:42:58.248Z,59.87
2023-08-03T04:45:24.700Z,59.69
2023-08-03T04:47:51.271Z,59.47
2023-08-03T04:50:20.328Z,59.56
2023-08-03T04:52:46.827Z,59.58
2023-08-03T04:55:13.799Z,59.49
2023-08-03T04:57:40.238Z,59.85
2023-08-03T05:00:08.334Z,59.52
2023-08-03T05:02:34.747Z,59.86
2023-08-03T05:05:01.221Z,59.87
2023-08-03T05:07:29.062Z,59.57
2023-08-03T05:09:55.636Z,59.74
2023-08-03T05:12:22.745Z,59.43
2023-08-03T05:14:49.862Z,59.72
2023-08-03T05:17:16.258Z,59.76
2023-08-03T05:19:42.647Z,59.81
2023-08-03T05:22:09.062Z,59.60
2023-08-03T05:24:35.488Z,59.76
2023-08-03T05:27:04.345Z,59.62
2023-08-03T05:29:31.021Z,59.76
2023-08-03T05:31:57.414Z,59.63
2023-08-03T05:34:23.809Z,59.80
2023-08-03T05:36:51.734Z,59.76
2023-08-03T05:39:18.123Z,59.37
2023-08-03T05:41:44.721Z,59.42
2023-08-03T05:44:14.225Z,59.80
2023-08-03T05:46:40.687Z,59.62
2023-08-03T05:49:08.848Z,59.55
2023-08-03T05:51:35.264Z,59.56
2023-08-03T05:54:01.645Z,59.59
2023-08-03T05:56:28.042Z,59.51
2023-08-03T05:58:54.489Z,59.45
2023-08-03T06:01:21.287Z,59.40
2023-08-03T06:03:47.814Z,59.82
2023-08-03T06:06:18.744Z,59.56
2023-08-03T06:08:49.408Z,59.39
2023-08-03T06:11:21.312Z,59.79
2023-08-03T06:13:54.013Z,59.77
2023-08-03T06:16:20.625Z,59.47
2023-08-03T06:18:48.595Z,59.82
2023-08-03T06:21:15.640Z,59.35
2023-08-03T06:23:42.773Z,59.32
2023-08-03T06:26:09.980Z,59.41
2023-08-03T06:28:36.368Z,59.35
2023-08-03T06:31:05.736Z,59.57
2023-08-03T06:33:32.125Z,59.41
2023-08-03T06:35:59.513Z,59.30
2023-08-03T06:38:25.917Z,59.59
2023-08-03T06:40:52.333Z,59.44
2023-08-03T06:43:18.943Z,59.45
2023-08-03T06:45:45.394Z,59.55
2023-08-03T06:48:11.865Z,59.46
2023-08-03T06:50:38.279Z,59.27
2023-08-03T06:53:05.059Z,59.32
2023-08-03T06:55:31.504Z,59.64
2023-08-03T06:57:58.449Z,59.68
2023-08-03T07:00:24.977Z,59.55
2023-08-03T07:02:51.871Z,59.39
2023-08-03T07:05:18.349Z,59.35
2023-08-03T07:07:44.847Z,59.37
2023-08-03T07:10:11.322Z,59.37
2023-08-03T07:12:37.989Z,59.39
2023-08-03T07:15:05.019Z,59.42
2023-08-03T07:17:31.500Z,59.53
2023-08-03T07:19:57.931Z,59.20
2023-08-03T07:22:24.395Z,59.25
2023-08-03T07:24:50.780Z,59.49
2023-08-03T07:27:17.166Z,59.51
2023-08-03T07:29:43.618Z,59.32
2023-08-03T07:32:10.256Z,59.49
2023-08-03T07:34:36.643Z,59.40
2023-08-03T07:37:03.067Z,59.46
2023-08-03T07:39:29.462Z,59.53
2023-08-03T07:41:55.838Z,59.55
2023-08-03T07:44:22.237Z,59.20
2023-08-03T07:46:48.615Z,59.33
2023-08-03T07:49:14.991Z,59.50
2023-08-03T07:51:41.544Z,59.31
2023-08-03T07:54:08.080Z,59.32
2023-08-03T07:56:34.535Z,59.06
2023-08-03T07:59:01.721Z,59.24
2023-08-03T08:01:28.283Z,59.13
2023-08-03T08:03:54.877Z,59.35
2023-08-03T08:06:21.560Z,59.30
2023-08-03T08:08:48.428Z,59.23
2023-08-03T08:11:15.656Z,59.39
2023-08-03T08:13:42.237Z,59.38
2023-08-03T08:16:09.544Z,58.99
2023-08-03T08:18:36.269Z,59.42
2023-08-03T08:21:03.629Z,59.23
2023-08-03T08:23:30.026Z,59.08
2023-08-03T08:25:56.578Z,59.19
2023-08-03T08:28:22.990Z,59.13
2023-08-03T08:30:49.501Z,59.40
2023-08-03T08:33:16.379Z,59.08
2023-08-03T08:35:43.118Z,59.21
2023-08-03T08:38:12.424Z,59.19
2023-08-03T08:40:39.431Z,59.30
2023-08-03T08:43:05.837Z,59.10
2023-08-03T08:45:32.343Z,59.14
2023-08-03T08:50:30.207Z,59.15
2023-08-03T09:00:27.454Z,59.24
2023-08-03T09:02:54.749Z,59.17
2023-08-03T09:06:23.743Z,59.02
2023-08-03T09:08:08.790Z,59.08
2023-08-03T09:11:07.651Z,59.38
2023-08-03T09:13:36.227Z,59.34
2023-08-03T09:16:02.705Z,59.19
2023-08-03T09:18:30.291Z,59.00
2023-08-03T09:26:08.310Z,59.08
2023-08-03T09:28:41.935Z,59.13
2023-08-03T09:31:08.631Z,59.12
2023-08-03T09:33:35.245Z,59.34
2023-08-03T09:36:02.223Z,59.29
2023-08-03T09:38:28.658Z,58.91
2023-08-03T09:40:55.091Z,59.00
2023-08-03T09:45:50.766Z,58.95
2023-08-03T09:48:17.207Z,59.34
2023-08-03T09:50:43.774Z,59.14
2023-08-03T09:55:43.081Z,59.02
2023-08-03T09:58:10.215Z,58.95
2023-08-03T10:00:36.646Z,59.10
2023-08-03T10:03:10.933Z,59.25
2023-08-03T10:05:38.842Z,58.99
2023-08-03T10:08:06.946Z,59.25
2023-08-03T10:10:36.374Z,59.31
2023-08-03T10:13:03.474Z,59.09
2023-08-03T10:15:29.996Z,59.30
2023-08-03T10:17:56.620Z,59.01
2023-08-03T10:20:23.036Z,59.14
2023-08-03T10:23:08.937Z,59.05
2023-08-03T10:25:35.333Z,59.00
2023-08-03T10:28:11.135Z,59.00
2023-08-03T10:30:56.335Z,59.13
2023-08-03T10:33:22.815Z,58.90
2023-08-03T10:35:50.881Z,59.23
2023-08-03T10:38:20.781Z,59.08
2023-08-03T10:40:47.174Z,58.96
2023-08-03T10:43:13.593Z,58.99
2023-08-03T10:45:41.527Z,59.21
2023-08-03T10:48:27.166Z,59.28
2023-08-03T10:50:57.220Z,59.10
2023-08-03T10:53:23.677Z,58.89
2023-08-03T10:55:52.013Z,59.25
2023-08-03T10:58:18.424Z,58.90
2023-08-03T11:00:44.890Z,59.37
2023-08-03T11:03:11.492Z,59.15
2023-08-03T11:05:38.359Z,59.03
2023-08-03T11:08:04.944Z,58.85
2023-08-03T11:10:31.354Z,58.88
2023-08-03T11:12:57.741Z,59.43
2023-08-03T11:15:24.122Z,59.16
2023-08-03T11:17:51.257Z,59.12
2023-08-03T11:20:18.344Z,58.94
2023-08-03T11:22:44.750Z,58.97
2023-08-03T11:25:11.603Z,59.09
2023-08-03T11:27:40.971Z,58.95
2023-08-03T11:30:07.487Z,58.98
2023-08-03T11:32:34.450Z,59.33
2023-08-03T11:35:01.385Z,59.00
2023-08-03T11:37:28.376Z,58.96
2023-08-03T11:39:54.815Z,59.11
2023-08-03T11:42:21.238Z,59.26
2023-08-03T11:44:55.698Z,59.28
2023-08-03T11:47:23.480Z,59.11
2023-08-03T11:49:50.028Z,59.06
2023-08-03T11:52:19.750Z,59.11
2023-08-03T11:54:46.175Z,59.29
2023-08-03T11:57:39.072Z,59.16
2023-08-03T12:00:05.702Z,59.06
2023-08-03T12:02:39.663Z,58.96
2023-08-03T12:07:36.145Z,59.20
2023-08-03T12:10:09.441Z,58.97
2023-08-03T12:12:39.180Z,58.99
2023-08-03T12:15:06.757Z,59.16
2023-08-03T12:17:33.281Z,58.87
2023-08-03T12:19:59.724Z,58.69
2023-08-03T12:22:26.869Z,59.04
2023-08-03T12:24:53.473Z,58.98
2023-08-03T12:27:23.587Z,58.95
2023-08-03T12:29:50.298Z,58.87
2023-08-03T12:32:16.694Z,58.95
2023-08-03T12:34:43.097Z,58.80
2023-08-03T12:37:09.558Z,59.04
2023-08-03T12:39:35.992Z,59.41
2023-08-03T12:42:02.443Z,59.24
2023-08-03T12:44:28.857Z,59.09
2023-08-03T12:46:55.304Z,58.90
2023-08-03T12:49:22.461Z,59.29
2023-08-03T12:51:48.939Z,59.15
2023-08-03T12:54:15.323Z,59.21
2023-08-03T12:56:41.977Z,59.20
2023-08-03T12:59:08.659Z,59.07
2023-08-03T13:01:35.160Z,58.79
2023-08-03T13:04:01.615Z,59.06
2023-08-03T13:06:28.688Z,58.98
2023-08-03T13:08:55.201Z,58.98
2023-08-03T13:11:22.039Z,58.96
2023-08-03T13:13:48.463Z,59.15
2023-08-03T13:16:14.899Z,59.16
2023-08-03T13:18:41.457Z,59.06
2023-08-03T13:21:09.968Z,59.09
2023-08-03T13:23:36.342Z,59.13
2023-08-03T13:26:02.834Z,59.15
2023-08-03T13:28:29.272Z,58.91
2023-08-03T13:30:56.512Z,59.27
2023-08-03T13:33:22.982Z,59.11
2023-08-03T13:35:49.626Z,58.96
2023-08-03T13:38:16.019Z,58.77
2023-08-03T13:40:42.428Z,58.83
2023-08-03T13:43:08.931Z,58.90
2023-08-03T13:45:35.355Z,58.86
2023-08-03T13:48:01.914Z,58.65
2023-08-03T13:50:28.546Z,58.84
2023-08-03T13:52:55.051Z,58.77
2023-08-03T13:55:21.473Z,58.83
2023-08-03T13:58:04.162Z,59.13
2023-08-03T14:00:46.347Z,58.86
2023-08-03T14:03:13.478Z,59.05
2023-08-03T14:08:09.561Z,58.95
2023-08-03T14:10:36.178Z,59.13
2023-08-03T14:13:03.130Z,58.87
2023-08-03T14:22:55.039Z,58.89
2023-08-03T14:27:53.457Z,59.18
2023-08-03T14:30:20.737Z,59.06
2023-08-03T14:32:47.960Z,59.00
2023-08-03T14:37:43.889Z,59.26
2023-08-03T14:40:10.340Z,58.98
2023-08-03T14:42:36.920Z,59.26
2023-08-03T14:45:03.962Z,59.23
2023-08-03T14:47:30.449Z,59.12
2023-08-03T14:52:26.948Z,59.14
2023-08-03T14:54:53.403Z,59.51
2023-08-03T14:57:19.808Z,59.16
2023-08-03T14:59:46.281Z,59.29
2023-08-03T15:02:12.703Z,59.45
2023-08-03T15:04:39.273Z,59.59
2023-08-03T15:07:07.320Z,59.13
2023-08-03T15:09:34.074Z,59.14
2023-08-03T15:12:00.545Z,59.07
2023-08-03T15:14:27.002Z,59.09
2023-08-03T15:17:00.679Z,59.38
2023-08-03T15:19:40.403Z,59.37
2023-08-03T15:22:07.752Z,59.07
2023-08-03T15:24:35.417Z,59.28
2023-08-03T15:27:04.534Z,59.26
2023-08-03T15:29:53.801Z,59.38
2023-08-03T15:34:52.650Z,59.29
2023-08-03T15:37:21.448Z,59.44
2023-08-03T15:39:49.456Z,59.43
2023-08-03T15:42:18.325Z,59.30
2023-08-03T15:44:49.257Z,59.26
2023-08-03T15:47:43.071Z,59.17
2023-08-03T15:50:07.207Z,59.31
2023-08-03T15:52:56.728Z,59.10
2023-08-03T15:57:52.441Z,59.01
2023-08-03T16:00:20.087Z,59.06
2023-08-03T16:02:46.722Z,59.11
2023-08-03T16:05:13.188Z,59.25
2023-08-03T16:07:39.633Z,59.04
2023-08-03T16:10:06.313Z,59.22
2023-08-03T16:12:32.696Z,59.09
2023-08-03T16:14:59.116Z,59.08
2023-08-03T16:17:25.573Z,59.02
2023-08-03T16:19:52.023Z,59.38
2023-08-03T16:22:18.464Z,59.34
2023-08-03T16:24:44.884Z,59.19
2023-08-03T16:27:11.541Z,59.33
2023-08-03T16:29:38.069Z,59.34
2023-08-03T16:32:15.724Z,59.55
2023-08-03T16:37:12.604Z,60.31
2023-08-03T16:39:39.073Z,62.29
2023-08-03T16:42:05.570Z,62.56
2023-08-03T16:44:31.963Z,62.20
2023-08-03T16:46:58.345Z,61.77
2023-08-03T16:49:24.796Z,61.43
2023-08-03T16:51:51.355Z,60.59
2023-08-03T16:54:18.278Z,60.56
2023-08-03T16:56:44.854Z,60.45
2023-08-03T16:59:11.598Z,60.23
2023-08-03T17:01:38.056Z,60.36
2023-08-03T17:04:04.522Z,60.10
2023-08-03T17:06:31.806Z,60.26
2023-08-03T17:08:59.695Z,60.08
2023-08-03T17:11:26.272Z,59.93
2023-08-03T17:13:52.656Z,60.21
2023-08-03T17:16:19.168Z,60.00
2023-08-03T17:18:45.764Z,60.17
2023-08-03T17:21:12.161Z,59.90
2023-08-03T17:23:38.532Z,60.23
2023-08-03T17:26:04.915Z,59.96
2023-08-03T17:28:31.292Z,59.94
2023-08-03T17:31:02.938Z,60.17
2023-08-03T17:33:29.491Z,60.24
2023-08-03T17:35:55.967Z,59.92
2023-08-03T17:38:22.412Z,59.84
2023-08-03T17:40:52.061Z,60.05
2023-08-03T17:43:18.510Z,60.04
2023-08-03T17:45:44.934Z,60.09
2023-08-03T17:48:11.403Z,60.00
2023-08-03T17:50:38.064Z,60.20
2023-08-03T17:53:04.494Z,59.88
2023-08-03T17:55:30.964Z,60.10
2023-08-03T17:57:57.442Z,60.26
2023-08-03T18:00:23.901Z,59.88
2023-08-03T18:02:50.359Z,59.89
2023-08-03T18:05:16.790Z,60.01
2023-08-03T18:07:44.660Z,60.08
2023-08-03T18:10:11.310Z,59.94
2023-08-03T18:12:37.793Z,60.18
2023-08-03T18:15:04.265Z,60.22
2023-08-03T18:17:31.865Z,60.00
2023-08-03T18:19:58.874Z,60.00
2023-08-03T18:22:25.959Z,59.92
2023-08-03T18:24:52.350Z,60.31
2023-08-03T18:27:18.789Z,60.11
2023-08-03T18:29:45.370Z,60.37
2023-08-03T18:32:11.769Z,60.13
2023-08-03T18:34:38.155Z,60.24
2023-08-03T18:37:05.449Z,59.93
2023-08-03T18:39:32.416Z,59.87
2023-08-03T18:41:58.831Z,60.06
2023-08-03T18:44:25.457Z,59.99
2023-08-03T18:46:51.891Z,60.21
2023-08-03T18:49:18.345Z,59.89
2023-08-03T18:51:44.743Z,59.75
2023-08-03T18:54:11.148Z,60.06
2023-08-03T18:56:37.584Z,59.88
2023-08-03T18:59:03.984Z,59.89
2023-08-03T19:01:32.591Z,59.94
2023-08-03T19:03:59.438Z,59.86
2023-08-03T19:06:27.240Z,59.87
2023-08-03T19:08:54.221Z,60.05
2023-08-03T19:11:20.628Z,60.01
2023-08-03T19:13:46.995Z,59.88
2023-08-03T19:16:13.495Z,59.90
2023-08-03T19:18:39.941Z,60.04
2023-08-03T19:21:06.313Z,59.82
2023-08-03T19:23:32.739Z,60.11
2023-08-03T19:26:01.019Z,59.87
2023-08-03T19:28:27.756Z,59.86
2023-08-03T19:30:54.484Z,59.97
2023-08-03T19:33:20.873Z,60.14
2023-08-03T19:35:47.240Z,59.99
2023-08-03T19:38:13.607Z,59.90
2023-08-03T19:40:47.933Z,59.88
2023-08-03T19:43:14.336Z,59.78
2023-08-03T19:45:40.760Z,59.77
2023-08-03T19:48:07.168Z,59.77
2023-08-03T19:51:51.328Z,59.77
2023-08-03T19:56:35.983Z,59.80
2023-08-03T20:11:06.496Z,60.03
2023-08-03T20:13:32.931Z,59.73
2023-08-03T20:15:59.390Z,60.00
2023-08-03T20:18:25.882Z,59.96
2023-08-03T20:20:52.339Z,59.86
2023-08-03T20:23:18.709Z,60.14
2023-08-03T20:25:45.095Z,60.08
2023-08-03T20:28:12.708Z,59.72
2023-08-03T20:30:39.640Z,59.90
2023-08-03T20:33:06.110Z,59.74
2023-08-03T20:35:35.634Z,59.77
2023-08-03T20:53:16.588Z,59.79
2023-08-03T20:55:44.599Z,59.80
2023-08-03T20:58:10.994Z,59.86
2023-08-03T21:00:37.396Z,59.77
2023-08-03T21:03:05.944Z,60.09
2023-08-03T21:05:36.821Z,59.84
2023-08-03T21:08:10.030Z,59.96
2023-08-03T21:13:07.068Z,60.12
2023-08-03T21:15:34.723Z,59.94
2023-08-03T21:18:01.433Z,60.05
2023-08-03T21:20:27.872Z,59.68
2023-08-03T21:22:54.303Z,60.09
2023-08-03T21:25:21.022Z,59.85
2023-08-03T21:27:47.407Z,59.83
2023-08-03T21:30:13.819Z,60.08
2023-08-03T21:32:44.295Z,59.65
2023-08-03T21:35:10.994Z,59.68
2023-08-03T21:37:37.489Z,59.95
2023-08-03T21:40:04.302Z,60.14
2023-08-03T21:42:30.708Z,59.71
2023-08-03T21:44:57.092Z,59.80
2023-08-03T21:47:23.575Z,59.75
2023-08-03T21:49:51.850Z,59.84
2023-08-03T21:52:18.264Z,59.68
2023-08-03T21:54:44.743Z,59.72
2023-08-03T21:57:11.253Z,59.66
2023-08-03T21:59:37.630Z,59.70
2023-08-03T22:02:04.476Z,59.79
2023-08-03T22:04:30.926Z,60.03
2023-08-03T22:06:57.326Z,59.74
2023-08-03T22:09:23.794Z,59.83
2023-08-03T22:11:53.209Z,59.67
2023-08-03T22:14:19.610Z,59.93
2023-08-03T22:16:46.034Z,59.69
2023-08-03T22:19:12.750Z,59.88
2023-08-03T22:21:39.270Z,59.65
2023-08-03T22:24:06.354Z,59.94
2023-08-03T22:26:32.764Z,60.06
2023-08-03T22:28:59.165Z,59.67
2023-08-03T22:31:25.606Z,59.87
2023-08-03T22:33:52.005Z,59.67
2023-08-03T22:36:18.516Z,59.68
2023-08-03T22:38:45.601Z,59.89
2023-08-03T22:41:12.704Z,60.02
2023-08-03T22:43:39.110Z,59.61
2023-08-03T22:46:05.598Z,59.78
2023-08-03T22:48:32.081Z,59.75
2023-08-03T22:50:58.528Z,59.88
2023-08-03T22:53:25.256Z,59.98
2023-08-03T22:56:01.518Z,59.63
2023-08-03T22:58:28.379Z,59.57
2023-08-03T23:00:54.771Z,59.78
2023-08-03T23:03:21.428Z,59.70
2023-08-03T23:05:47.998Z,59.67
2023-08-03T23:08:14.385Z,59.87
2023-08-03T23:10:40.805Z,59.64
2023-08-03T23:13:07.192Z,59.65
2023-08-03T23:15:36.845Z,59.64
2023-08-03T23:18:03.328Z,59.74
2023-08-03T23:20:29.750Z,59.71
2023-08-03T23:22:56.126Z,59.86
2023-08-03T23:25:22.502Z,59.66
2023-08-03T23:27:49.014Z,59.68
2023-08-03T23:30:15.430Z,59.55
2023-08-03T23:32:41.858Z,59.81
2023-08-03T23:35:08.503Z,59.55
2023-08-03T23:37:34.889Z,59.63
2023-08-03T23:40:01.264Z,59.62
2023-08-03T23:42:27.643Z,59.64
2023-08-03T23:44:54.025Z,59.70
2023-08-03T23:47:20.407Z,59.56
2023-08-03T23:49:46.777Z,59.65
2023-08-03T23:52:13.182Z,59.75
2023-08-03T23:54:39.563Z,59.74
2023-08-03T23:57:06.015Z,59.55
2023-08-03T23:59:32.387Z,59.63
